Time;durP1;ratioP1;P1;durP2;ratioP2;P2;SDS_P1;SDS_P2;PMS_P1;PMS_P2;Temp;Humidity;BMP_temperature;BMP_pressure;BME280_temperature;BME280_humidity;BME280_pressure;Samples;Min_cycle;Max_cycle;Signal;HPM_P1;HPM_P2
2023/01/12 00:01:23;;;;;;;6.82;2.88;;;;;;;6.15;100.00;100960.56;10469196;28;20033;-82
2023/01/12 00:06:24;;;;;;;17.05;4.35;;;;;;;6.18;100.00;100960.78;10419072;28;20060;-80
2023/01/12 00:11:25;;;;;;;11.43;3.47;;;;;;;6.18;100.00;100963.38;10452470;28;20036;-81
2023/01/12 00:16:37;;;;;;;13.27;4.22;;;;;;;6.26;100.00;100961.25;10483473;28;20045;-81
2023/01/12 00:21:55;;;;;;;12.18;4.05;;;;;;;6.22;100.00;100957.59;10463514;28;20060;-84
2023/01/12 00:26:57;;;;;;;20.65;5.30;;;;;;;6.27;100.00;100937.06;10457106;28;20124;-83
2023/01/12 00:31:58;;;;;;;30.47;5.87;;;;;;;6.29;100.00;100941.59;10469764;28;20045;-82
2023/01/12 00:36:59;;;;;;;14.60;6.78;;;;;;;6.30;100.00;100940.78;10448517;28;20287;-82
2023/01/12 00:47:18;;;;;;;14.57;5.13;;;;;;;6.38;100.00;100928.28;10448116;28;20036;-82
2023/01/12 00:52:19;;;;;;;24.83;6.13;;;;;;;6.40;100.00;100916.28;10467997;28;20477;-82
2023/01/12 00:57:19;;;;;;;16.88;4.10;;;;;;;6.49;100.00;100912.47;10454083;28;20044;-82
2023/01/12 01:02:20;;;;;;;16.20;5.43;;;;;;;6.60;100.00;100921.88;10478529;28;20041;-82
2023/01/12 01:07:20;;;;;;;18.50;5.57;;;;;;;6.61;100.00;100903.78;10446077;28;20477;-81
2023/01/12 01:12:21;;;;;;;19.23;4.60;;;;;;;6.57;100.00;100891.41;10467051;28;20060;-82
2023/01/12 01:17:21;;;;;;;12.75;6.68;;;;;;;6.54;100.00;100899.00;10488318;28;20127;-81
2023/01/12 01:22:22;;;;;;;17.42;4.15;;;;;;;6.52;100.00;100874.59;10477402;28;20455;-81
2023/01/12 01:27:22;;;;;;;14.70;5.55;;;;;;;6.56;100.00;100884.41;10488619;28;20037;-80
2023/01/12 01:32:23;;;;;;;15.82;5.28;;;;;;;6.58;100.00;100872.38;10467271;28;20136;-82
2023/01/12 01:37:23;;;;;;;11.60;5.38;;;;;;;6.61;100.00;100869.97;10445895;28;20059;-82
2023/01/12 01:42:27;;;;;;;24.77;7.10;;;;;;;6.65;100.00;100867.56;10462915;28;20560;-83
2023/01/12 01:47:34;;;;;;;13.27;4.90;;;;;;;6.77;100.00;100852.75;10443345;28;20068;-82
2023/01/12 01:52:36;;;;;;;13.98;4.47;;;;;;;6.86;100.00;100835.09;10464509;28;20067;-83
2023/01/12 01:58:09;;;;;;;12.10;4.35;;;;;;;6.85;100.00;100830.72;10467222;28;20031;-82
2023/01/12 02:03:09;;;;;;;17.85;4.32;;;;;;;6.80;100.00;100826.00;10427168;28;20033;-82
2023/01/12 02:08:18;;;;;;;22.42;6.60;;;;;;;6.74;100.00;100834.34;10427729;28;20069;-83
2023/01/12 02:18:41;;;;;;;19.85;6.75;;;;;;;6.64;100.00;100811.16;10470291;28;20041;-81
2023/01/12 02:23:48;;;;;;;23.98;7.35;;;;;;;6.66;100.00;100794.84;10452746;28;20037;-81
2023/01/12 02:29:25;;;;;;;28.10;7.43;;;;;;;6.64;100.00;100800.75;10444708;28;20489;-81
2023/01/12 02:34:50;;;;;;;19.15;7.20;;;;;;;6.63;100.00;100788.56;10474214;28;20553;-83
2023/01/12 02:39:58;;;;;;;20.08;5.80;;;;;;;6.57;100.00;100795.16;10415369;28;20037;-81
2023/01/12 02:45:23;;;;;;;20.85;6.38;;;;;;;6.56;100.00;100779.47;10462753;28;20564;-81
2023/01/12 02:50:50;;;;;;;13.25;4.55;;;;;;;6.51;100.00;100789.59;10403597;28;20042;-81
2023/01/12 02:55:51;;;;;;;19.60;4.95;;;;;;;6.50;100.00;100787.78;10359375;28;20049;-82
2023/01/12 03:00:53;;;;;;;24.08;7.15;;;;;;;6.54;100.00;100774.19;10367045;28;20045;-82
2023/01/12 03:05:57;;;;;;;21.45;5.00;;;;;;;6.56;100.00;100769.06;10422236;28;20064;-82
2023/01/12 03:11:00;;;;;;;24.80;6.07;;;;;;;6.58;100.00;100765.75;10443882;28;20123;-82
2023/01/12 03:16:01;;;;;;;8.85;4.32;;;;;;;6.57;100.00;100752.66;10447395;28;20393;-83
2023/01/12 03:21:14;;;;;;;19.02;6.72;;;;;;;6.61;100.00;100746.84;10431293;28;20044;-82
2023/01/12 03:26:17;;;;;;;17.85;4.43;;;;;;;6.61;100.00;100744.22;10441747;28;20041;-81
2023/01/12 03:31:17;;;;;;;21.30;5.78;;;;;;;6.62;100.00;100738.22;10440934;28;20501;-81
2023/01/12 03:36:45;;;;;;;14.32;5.50;;;;;;;6.66;100.00;100726.31;10469149;28;20115;-82
2023/01/12 03:42:07;;;;;;;23.80;5.72;;;;;;;6.60;100.00;100704.34;10425795;28;20033;-80
2023/01/12 03:47:11;;;;;;;20.20;6.70;;;;;;;6.65;100.00;100711.53;10454884;28;20481;-81
2023/01/12 03:52:11;;;;;;;20.70;4.57;;;;;;;6.69;100.00;100692.72;10422665;28;20370;-83
2023/01/12 03:57:12;;;;;;;12.25;3.53;;;;;;;6.65;100.00;100686.41;10422295;28;20095;-82
2023/01/12 04:02:12;;;;;;;21.00;4.43;;;;;;;6.65;100.00;100680.31;10452725;28;20465;-82
2023/01/12 04:07:13;;;;;;;22.00;3.97;;;;;;;6.65;100.00;100673.41;10459450;28;20339;-82
2023/01/12 04:12:13;;;;;;;13.23;5.88;;;;;;;6.64;100.00;100668.13;10431043;28;20041;-81
2023/01/12 04:17:14;;;;;;;26.90;5.47;;;;;;;6.65;100.00;100647.41;10433660;28;20045;-80
2023/01/12 04:27:34;;;;;;;10.88;3.22;;;;;;;6.63;100.00;100606.50;10422450;28;20045;-81
2023/01/12 04:32:35;;;;;;;12.10;3.95;;;;;;;6.62;100.00;100597.78;10444098;28;20123;-80
2023/01/12 04:37:35;;;;;;;14.40;5.03;;;;;;;6.60;100.00;100589.00;10446081;28;20128;-81
2023/01/12 04:47:59;;;;;;;11.65;3.53;;;;;;;6.64;100.00;100546.78;10431802;28;20049;-81
2023/01/12 04:53:02;;;;;;;13.30;3.28;;;;;;;6.64;100.00;100551.97;10419673;28;20041;-82
2023/01/12 04:58:03;;;;;;;13.70;4.90;;;;;;;6.65;100.00;100550.28;10413710;28;20128;-82
2023/01/12 05:03:03;;;;;;;15.57;4.60;;;;;;;6.64;100.00;100504.28;10440740;28;20461;-82
2023/01/12 05:13:25;;;;;;;10.80;3.40;;;;;;;6.61;100.00;100474.69;10427241;28;20029;-83
2023/01/12 05:18:25;;;;;;;9.13;4.60;;;;;;;6.57;100.00;100523.81;10441404;28;20502;-85
2023/01/12 05:23:26;;;;;;;23.92;5.68;;;;;;;6.57;100.00;100509.13;10444443;28;20029;-82
2023/01/12 05:28:27;;;;;;;16.58;5.07;;;;;;;6.53;100.00;100481.16;10412021;28;20059;-85
2023/01/12 05:33:27;;;;;;;11.65;4.47;;;;;;;6.53;100.00;100493.25;10376766;28;20050;-86
2023/01/12 05:38:28;;;;;;;11.88;4.80;;;;;;;6.54;100.00;100476.84;10396772;28;20064;-79
2023/01/12 05:48:48;;;;;;;17.00;4.55;;;;;;;6.58;100.00;100458.91;10382792;28;20045;-81
2023/01/12 05:53:48;;;;;;;14.55;4.68;;;;;;;6.57;100.00;100451.94;10376529;28;20955;-79
2023/01/12 05:58:53;;;;;;;25.20;4.88;;;;;;;6.60;100.00;100451.19;10403704;28;20187;-81
2023/01/12 06:03:55;;;;;;;18.67;6.25;;;;;;;6.58;100.00;100450.22;10383189;28;20042;-81
2023/01/12 06:08:55;;;;;;;18.98;5.00;;;;;;;6.63;100.00;100453.09;10403647;28;20125;-81
2023/01/12 06:13:56;;;;;;;13.50;3.15;;;;;;;6.65;100.00;100448.88;10384869;28;20053;-79
2023/01/12 06:18:57;;;;;;;14.85;5.63;;;;;;;6.67;100.00;100442.94;10399776;28;20038;-82
2023/01/12 06:23:57;;;;;;;19.25;3.95;;;;;;;6.68;100.00;100454.25;10360420;28;20033;-79
2023/01/12 06:28:58;;;;;;;17.85;6.22;;;;;;;6.73;100.00;100442.41;10395228;28;20046;-83
2023/01/12 06:33:58;;;;;;;14.90;5.03;;;;;;;6.79;100.00;100454.84;10401793;28;20044;-83
2023/01/12 06:38:58;;;;;;;17.13;8.95;;;;;;;6.77;100.00;100452.16;10435043;28;20052;-81
2023/01/12 06:43:59;;;;;;;19.20;7.03;;;;;;;6.79;100.00;100454.84;10430049;28;20039;-79
2023/01/12 06:49:00;;;;;;;31.25;15.32;;;;;;;6.87;100.00;100487.38;10467395;28;20065;-78
2023/01/12 06:54:00;;;;;;;17.38;4.95;;;;;;;6.96;100.00;100466.19;10406538;28;20037;-78
2023/01/12 06:59:01;;;;;;;9.55;3.38;;;;;;;6.93;100.00;100461.69;10423377;28;20143;-79
2023/01/12 07:04:01;;;;;;;11.38;3.60;;;;;;;6.93;100.00;100461.69;10460265;28;20036;-80
2023/01/12 07:09:02;;;;;;;12.10;3.50;;;;;;;6.93;100.00;100464.31;10457307;28;20472;-79
2023/01/12 07:14:02;;;;;;;18.35;3.80;;;;;;;6.99;100.00;100475.06;10430299;28;20060;-79
2023/01/12 07:19:03;;;;;;;7.63;2.22;;;;;;;7.09;100.00;100457.34;10455204;28;20500;-79
2023/01/12 07:24:04;;;;;;;7.78;2.45;;;;;;;7.07;100.00;100462.47;10396657;28;20071;-81
2023/01/12 07:29:04;;;;;;;8.05;2.63;;;;;;;7.08;100.00;100458.16;10391470;28;20053;-80
2023/01/12 07:34:05;;;;;;;7.68;2.00;;;;;;;7.14;100.00;100464.63;10414111;28;20046;-80
2023/01/12 07:39:07;;;;;;;9.55;2.95;;;;;;;7.14;100.00;100451.59;10390733;28;20099;-80
2023/01/12 07:44:08;;;;;;;14.65;2.33;;;;;;;7.15;100.00;100474.22;10412204;28;20053;-78
2023/01/12 07:49:09;;;;;;;6.80;2.20;;;;;;;7.16;100.00;100468.19;10412260;28;20060;-80
2023/01/12 07:54:09;;;;;;;12.98;3.88;;;;;;;7.23;100.00;100482.44;10449330;28;20548;-82
2023/01/12 07:59:10;;;;;;;10.48;3.90;;;;;;;7.26;100.00;100480.00;10394709;28;20514;-82
2023/01/12 08:04:10;;;;;;;9.35;5.25;;;;;;;7.26;100.00;100480.00;10421678;28;20072;-83
2023/01/12 08:09:11;;;;;;;11.10;3.92;;;;;;;7.30;100.00;100496.69;10394559;28;20037;-80
2023/01/12 08:14:17;;;;;;;12.65;3.03;;;;;;;7.29;100.00;100498.38;10425107;28;20051;-81
2023/01/12 08:19:20;;;;;;;6.57;2.35;;;;;;;7.34;100.00;100480.44;10457494;28;20044;-83
2023/01/12 08:24:22;;;;;;;10.48;2.97;;;;;;;7.39;100.00;100498.88;10466615;28;20434;-83
2023/01/12 08:29:30;;;;;;;10.17;4.10;;;;;;;7.41;100.00;100499.88;10477096;28;20064;-84
2023/01/12 08:34:32;;;;;;;8.25;2.85;;;;;;;7.43;100.00;100496.56;10480157;28;20344;-84
2023/01/12 08:39:34;;;;;;;4.93;2.43;;;;;;;7.45;100.00;100502.75;10449852;28;20037;-82
2023/01/12 08:44:35;;;;;;;10.57;2.97;;;;;;;7.51;100.00;100496.94;10490174;28;20033;-80
2023/01/12 08:49:35;;;;;;;7.63;1.90;;;;;;;7.52;100.00;100500.47;10473482;28;20033;-79
2023/01/12 08:54:36;;;;;;;7.30;2.00;;;;;;;7.61;100.00;100507.06;10447278;28;20068;-80
2023/01/12 08:59:36;;;;;;;13.00;2.38;;;;;;;7.60;100.00;100512.19;10451147;28;20044;-78
2023/01/12 09:04:39;;;;;;;6.63;2.50;;;;;;;7.60;100.00;100512.19;10451876;28;20045;-79
2023/01/12 09:09:39;;;;;;;9.45;3.80;;;;;;;7.59;100.00;100526.03;10441017;28;20486;-81
2023/01/12 09:14:40;;;;;;;7.43;1.50;;;;;;;7.67;100.00;100529.03;10431136;28;20052;-80
2023/01/12 09:19:43;;;;;;;5.68;1.73;;;;;;;7.75;100.00;100527.72;10443898;28;20106;-80
2023/01/12 09:24:44;;;;;;;12.32;2.75;;;;;;;7.78;100.00;100533.09;10428796;28;20098;-81
2023/01/12 09:29:44;;;;;;;18.33;2.90;;;;;;;7.81;100.00;100543.69;10404470;28;20081;-80
2023/01/12 09:34:47;;;;;;;4.20;1.52;;;;;;;7.88;100.00;100548.41;10402186;28;20107;-79
2023/01/12 09:39:47;;;;;;;10.07;1.80;;;;;;;7.90;100.00;100551.13;10438739;28;20489;-80
2023/01/12 09:50:09;;;;;;;4.82;2.33;;;;;;;7.93;100.00;100546.94;10426987;28;20029;-79
2023/01/12 09:55:26;;;;;;;5.97;2.17;;;;;;;7.98;100.00;100570.66;10443912;28;20511;-80
2023/01/12 10:00:29;;;;;;;8.13;1.38;;;;;;;8.05;100.00;100569.28;10478956;28;20067;-78
2023/01/12 10:05:48;;;;;;;10.13;2.30;;;;;;;8.02;100.00;100574.31;10426359;28;20037;-80
2023/01/12 10:11:00;;;;;;;9.60;1.65;;;;;;;8.08;100.00;100559.00;10443217;28;20051;-80
2023/01/12 10:16:01;;;;;;;7.10;2.45;;;;;;;8.18;100.00;100571.72;10441749;28;20037;-79
2023/01/12 10:21:09;;;;;;;4.45;1.33;;;;;;;8.24;100.00;100571.16;10444077;28;20037;-78
2023/01/12 10:26:13;;;;;;;5.65;1.75;;;;;;;8.30;100.00;100574.06;10443509;28;20488;-80
2023/01/12 10:31:19;;;;;;;5.13;1.38;;;;;;;8.34;100.00;100564.69;10443503;28;20118;-80
2023/01/12 10:36:20;;;;;;;3.60;1.42;;;;;;;8.32;100.00;100569.84;10442603;28;20025;-81
2023/01/12 10:41:28;;;;;;;5.70;1.55;;;;;;;8.32;100.00;100527.19;10442033;28;20062;-79
2023/01/12 10:46:30;;;;;;;5.80;1.25;;;;;;;8.31;100.00;100577.56;10442120;28;20029;-80
2023/01/12 10:51:34;;;;;;;5.40;1.42;;;;;;;8.31;100.00;100547.19;10440234;28;20053;-80
2023/01/12 10:56:36;;;;;;;4.53;1.30;;;;;;;8.37;100.00;100580.50;10441775;28;20041;-80
2023/01/12 11:01:50;;;;;;;;;;;;;;;8.40;100.00;100575.44;10442582;28;20477;-81
2023/01/12 11:07:24;;;;;;;5.88;1.45;;;;;;;8.37;100.00;100578.78;10440922;28;19920;-81
2023/01/12 11:12:38;;;;;;;6.03;1.20;;;;;;;8.41;100.00;100569.41;10440670;28;20041;-80
2023/01/12 11:18:13;;;;;;;7.38;1.73;;;;;;;8.44;100.00;100581.72;10423652;28;20099;-81
2023/01/12 11:23:17;;;;;;;13.07;3.95;;;;;;;8.45;100.00;100573.09;10444448;28;20051;-79
2023/01/12 11:28:42;;;;;;;4.38;1.17;;;;;;;8.49;100.00;100562.91;10437156;28;20033;-81
2023/01/12 11:33:46;;;;;;;5.28;1.10;;;;;;;8.55;100.00;100564.94;10467834;28;20049;-80
2023/01/12 11:38:48;;;;;;;3.95;1.10;;;;;;;8.56;100.00;100558.00;10480885;28;20028;-81
2023/01/12 11:44:29;;;;;;;7.65;1.48;;;;;;;8.52;100.00;100567.41;10419587;28;20037;-82
2023/01/12 11:49:41;;;;;;;4.88;2.17;;;;;;;8.51;100.00;100561.25;10410297;28;20497;-80
2023/01/12 11:54:41;;;;;;;4.60;2.47;;;;;;;8.50;100.00;100577.72;10456747;28;20059;-83
2023/01/12 12:00:01;;;;;;;5.53;2.63;;;;;;;8.48;100.00;100563.69;10403758;28;20155;-81
2023/01/12 12:05:04;;;;;;;5.80;2.88;;;;;;;8.41;100.00;100564.19;10431243;28;20041;-80
2023/01/12 12:10:21;;;;;;;3.95;1.30;;;;;;;8.37;100.00;100559.63;10469770;28;20148;-80
2023/01/12 12:15:33;;;;;;;3.28;0.93;;;;;;;8.48;100.00;100542.81;10469628;28;20044;-80
2023/01/12 12:20:54;;;;;;;;;;;;;;;8.43;100.00;100544.28;10483193;28;20040;-82
2023/01/12 12:26:12;;;;;;;3.80;0.93;;;;;;;8.38;100.00;100548.38;10481999;28;20383;-81
2023/01/12 12:31:50;;;;;;;5.47;1.20;;;;;;;8.38;100.00;100554.50;10407043;28;20489;-80
2023/01/12 12:36:57;;;;;;;6.80;1.13;;;;;;;8.36;100.00;100542.19;10447759;28;20127;-81
2023/01/12 12:47:37;;;;;;;7.43;1.25;;;;;;;8.38;100.00;100533.66;10447869;28;20469;-80
2023/01/12 12:52:38;;;;;;;4.93;1.13;;;;;;;8.35;100.00;100525.66;10446109;28;20382;-83
2023/01/12 12:58:01;;;;;;;3.83;1.30;;;;;;;8.38;100.00;100528.44;10427912;28;20037;-82
2023/01/12 13:03:02;;;;;;;3.90;1.73;;;;;;;8.36;100.00;100521.34;10447464;28;20037;-81
2023/01/12 13:08:02;;;;;;;3.42;0.98;;;;;;;8.37;100.00;100526.63;10427627;28;20373;-80
2023/01/12 13:13:15;;;;;;;2.70;1.27;;;;;;;8.38;100.00;100504.06;10443578;28;20068;-80
2023/01/12 13:18:46;;;;;;;3.65;2.25;;;;;;;8.42;100.00;100505.13;10444410;28;20136;-79
2023/01/12 13:23:49;;;;;;;3.28;1.00;;;;;;;8.44;100.00;100501.75;10484042;28;20450;-79
2023/01/12 13:29:24;;;;;;;6.38;1.75;;;;;;;8.44;100.00;100493.94;10486649;28;20028;-81
2023/01/12 13:34:30;;;;;;;3.10;1.20;;;;;;;8.45;100.00;100487.00;10479649;28;20139;-79
2023/01/12 13:39:32;;;;;;;3.10;1.40;;;;;;;8.44;100.00;100493.94;10446721;28;20131;-80
2023/01/12 13:44:33;;;;;;;3.03;1.35;;;;;;;8.45;100.00;100497.44;10459781;28;20041;-79
2023/01/12 13:49:42;;;;;;;4.43;1.25;;;;;;;8.42;100.00;100479.91;10426379;28;20132;-79
2023/01/12 13:54:48;;;;;;;4.30;1.30;;;;;;;8.39;100.00;100474.53;10427908;28;20029;-79
2023/01/12 13:59:55;;;;;;;2.42;1.15;;;;;;;8.37;100.00;100476.19;10442931;28;20048;-80
2023/01/12 14:05:14;;;;;;;3.35;1.05;;;;;;;8.37;100.00;100482.31;10443470;28;20037;-80
2023/01/12 14:10:25;;;;;;;3.88;1.05;;;;;;;8.38;100.00;100441.47;10443979;28;20061;-81
2023/01/12 14:20:46;;;;;;;3.47;1.73;;;;;;;8.40;100.00;100475.47;10444956;28;20047;-82
2023/01/12 14:26:01;;;;;;;;;;;;;;;8.42;100.00;100479.91;10425056;28;20592;-82
2023/01/12 14:31:02;;;;;;;2.45;1.27;;;;;;;8.39;100.00;100456.28;10475331;28;19920;-82
2023/01/12 14:36:05;;;;;;;2.15;1.30;;;;;;;8.43;100.00;100453.03;10465738;28;20082;-81
2023/01/12 14:46:28;;;;;;;3.10;1.88;;;;;;;8.38;100.00;100462.31;10469060;28;20024;-81
2023/01/12 14:51:35;;;;;;;4.45;2.53;;;;;;;8.37;100.00;100456.22;10465584;28;20044;-81
2023/01/12 14:56:47;;;;;;;3.75;1.70;;;;;;;8.41;100.00;100441.63;10481923;28;20138;-81
2023/01/12 15:01:47;;;;;;;5.43;1.60;;;;;;;8.42;100.00;100445.13;10482182;28;20040;-80
2023/01/12 15:07:01;;;;;;;4.72;2.15;;;;;;;8.41;100.00;100439.00;10482709;28;20275;-79
2023/01/12 15:12:29;;;;;;;3.90;1.63;;;;;;;8.36;100.00;100430.06;10480940;28;20044;-80
2023/01/12 15:28:08;;;;;;;7.10;2.17;;;;;;;8.40;100.00;100429.41;10482858;28;20036;-81
2023/01/12 15:33:08;;;;;;;3.13;1.63;;;;;;;8.37;100.00;100429.25;10458181;28;20072;-79
2023/01/12 15:38:12;;;;;;;6.68;2.60;;;;;;;8.34;100.00;100426.47;10422414;28;20116;-79
2023/01/12 15:43:13;;;;;;;6.65;2.03;;;;;;;8.31;100.00;100427.25;10424628;28;20047;-79
2023/01/12 15:48:13;;;;;;;4.73;2.03;;;;;;;8.32;100.00;100416.00;10427564;28;20108;-79
2023/01/12 15:53:18;;;;;;;4.68;1.70;;;;;;;8.34;100.00;100429.09;10441158;28;20053;-80
2023/01/12 15:58:18;;;;;;;4.05;2.03;;;;;;;8.38;100.00;100416.28;10461122;28;20048;-78
2023/01/12 16:03:20;;;;;;;3.63;1.90;;;;;;;8.38;100.00;100405.88;10439767;28;20064;-80
2023/01/12 16:08:22;;;;;;;4.13;1.70;;;;;;;8.35;100.00;100410.03;10388308;28;20045;-80
2023/01/12 16:13:22;;;;;;;4.90;2.17;;;;;;;8.31;100.00;100416.81;10475753;28;20041;-78
2023/01/12 16:18:23;;;;;;;3.83;1.73;;;;;;;8.29;100.00;100404.50;10447904;28;20052;-78
2023/01/12 16:23:25;;;;;;;3.92;2.20;;;;;;;8.31;100.00;100413.28;10472180;28;20083;-78
2023/01/12 16:28:26;;;;;;;17.65;15.93;;;;;;;8.30;100.00;100403.69;10479686;28;20040;-79
2023/01/12 16:33:27;;;;;;;5.55;2.33;;;;;;;8.28;100.00;100410.53;10453841;28;20041;-79
2023/01/12 16:38:27;;;;;;;4.93;2.10;;;;;;;8.30;100.00;100408.91;10471696;28;20063;-80
2023/01/12 16:43:28;;;;;;;4.47;2.85;;;;;;;8.31;100.00;100418.50;10486799;28;20122;-80
2023/01/12 16:48:32;;;;;;;5.15;2.50;;;;;;;8.31;100.00;100402.88;10467832;28;20070;-79
2023/01/12 16:53:33;;;;;;;4.20;1.85;;;;;;;8.31;100.00;100403.78;10445673;28;20029;-78
2023/01/12 16:58:33;;;;;;;3.17;1.67;;;;;;;8.33;100.00;100398.63;10445522;28;20064;-80
2023/01/12 17:03:34;;;;;;;2.28;1.33;;;;;;;8.32;100.00;100397.75;10446766;28;20120;-79
2023/01/12 17:08:35;;;;;;;4.00;1.30;;;;;;;8.31;100.00;100397.66;10443481;28;20080;-81
2023/01/12 17:13:35;;;;;;;3.47;1.80;;;;;;;8.32;100.00;100396.84;10474518;28;20477;-80
2023/01/12 17:18:39;;;;;;;3.15;1.52;;;;;;;8.31;100.00;100397.66;10444671;28;20037;-80
2023/01/12 17:23:40;;;;;;;4.72;1.45;;;;;;;8.38;100.00;100387.63;10477915;28;20033;-80
2023/01/12 17:28:41;;;;;;;2.53;1.27;;;;;;;8.37;100.00;100382.31;10438579;28;20109;-79
2023/01/12 17:33:41;;;;;;;1.30;0.95;;;;;;;8.38;100.00;100385.00;10435033;28;20394;-79
2023/01/12 17:38:42;;;;;;;4.60;1.58;;;;;;;8.36;100.00;100388.34;10445612;28;20040;-79
2023/01/12 17:43:42;;;;;;;5.30;1.58;;;;;;;8.32;100.00;100389.00;10460321;28;20053;-78
2023/01/12 17:48:43;;;;;;;4.50;2.10;;;;;;;8.33;100.00;100398.63;10443367;28;20378;-79
2023/01/12 17:53:43;;;;;;;4.72;1.40;;;;;;;8.32;100.00;100379.50;10442669;28;20114;-77
2023/01/12 17:58:44;;;;;;;7.15;2.03;;;;;;;8.33;100.00;100388.19;10442571;28;20501;-78
2023/01/12 18:03:44;;;;;;;5.00;2.05;;;;;;;8.30;100.00;100380.22;10443134;28;20097;-78
2023/01/12 18:08:46;;;;;;;4.43;1.23;;;;;;;8.35;100.00;100391.78;10465778;28;20492;-79
2023/01/12 18:13:46;;;;;;;3.20;2.38;;;;;;;8.26;100.00;100392.22;10424707;28;20071;-78
2023/01/12 18:18:47;;;;;;;3.13;1.70;;;;;;;8.23;100.00;100392.06;10450728;28;20048;-80
2023/01/12 18:23:49;;;;;;;4.57;1.88;;;;;;;8.26;100.00;100378.28;10448553;28;20045;-78
2023/01/12 18:28:50;;;;;;;3.55;1.73;;;;;;;8.25;100.00;100373.88;10442175;28;20544;-81
2023/01/12 18:33:53;;;;;;;5.97;2.63;;;;;;;8.32;100.00;100383.78;10475211;28;20056;-78
2023/01/12 18:38:54;;;;;;;3.72;2.05;;;;;;;8.34;100.00;100377.84;10448974;28;20064;-78
2023/01/12 18:43:56;;;;;;;4.43;2.65;;;;;;;8.33;100.00;100369.94;10436426;28;20040;-79
2023/01/12 18:48:56;;;;;;;4.93;2.47;;;;;;;8.29;100.00;100375.81;10418317;28;20033;-80
2023/01/12 18:53:57;;;;;;;4.20;2.55;;;;;;;8.28;100.00;100380.16;10474693;28;20396;-80
2023/01/12 18:58:57;;;;;;;4.88;2.67;;;;;;;8.31;100.00;100380.31;10465745;28;20456;-80
2023/01/12 19:03:58;;;;;;;6.28;2.20;;;;;;;8.27;100.00;100388.81;10483087;28;20075;-80
2023/01/12 19:19:37;;;;;;;7.05;2.03;;;;;;;8.19;100.00;100384.91;10482752;28;20036;-81
2023/01/12 19:29:56;;;;;;;5.60;3.35;;;;;;;8.25;100.00;100384.31;10479493;28;20431;-79
2023/01/12 19:34:57;;;;;;;4.35;1.70;;;;;;;8.21;100.00;100378.94;10460956;28;20167;-79
2023/01/12 19:40:01;;;;;;;6.38;2.97;;;;;;;8.19;100.00;100377.09;10413044;28;20032;-78
2023/01/12 19:45:06;;;;;;;8.23;2.38;;;;;;;8.22;100.00;100382.47;10438128;28;20041;-78
2023/01/12 19:50:07;;;;;;;4.32;2.58;;;;;;;8.18;100.00;100355.34;10439693;28;20037;-78
2023/01/12 19:55:09;;;;;;;4.53;2.28;;;;;;;8.16;100.00;100336.13;10438620;28;20065;-78
2023/01/12 20:00:12;;;;;;;5.60;2.00;;;;;;;8.17;100.00;100356.16;10446688;28;20411;-78
2023/01/12 20:05:20;;;;;;;4.07;2.13;;;;;;;8.13;100.00;100368.97;10436976;28;20041;-79
2023/01/12 20:10:21;;;;;;;3.75;1.67;;;;;;;8.14;100.00;100352.53;10437547;28;20501;-78
2023/01/12 20:15:22;;;;;;;4.80;2.03;;;;;;;8.13;100.00;100364.63;10439012;28;20033;-78
2023/01/12 20:20:22;;;;;;;4.95;2.40;;;;;;;8.19;100.00;100380.59;10439579;28;20033;-78
2023/01/12 20:25:23;;;;;;;5.60;1.65;;;;;;;8.29;100.00;100375.81;10439700;28;20036;-79
2023/01/12 20:30:24;;;;;;;2.47;1.23;;;;;;;8.29;100.00;100384.56;10438258;28;20037;-78
2023/01/12 20:35:26;;;;;;;4.57;1.80;;;;;;;8.33;100.00;100369.94;10421969;28;20061;-79
2023/01/12 20:40:26;;;;;;;3.25;1.65;;;;;;;8.31;100.00;100379.41;10440721;28;20037;-79
2023/01/12 20:45:27;;;;;;;3.45;1.27;;;;;;;8.26;100.00;100371.38;10442504;28;20063;-79
2023/01/12 20:50:27;;;;;;;5.38;2.08;;;;;;;8.26;100.00;100375.66;10429436;28;20140;-78
2023/01/12 20:55:28;;;;;;;4.07;1.55;;;;;;;8.29;100.00;100358.47;10412257;28;20162;-78
2023/01/12 21:00:30;;;;;;;3.30;1.35;;;;;;;8.36;100.00;100349.22;10463863;28;20041;-78
2023/01/12 21:05:31;;;;;;;3.20;1.90;;;;;;;8.28;100.00;100351.47;10439798;28;20497;-78
2023/01/12 21:10:32;;;;;;;8.05;2.20;;;;;;;8.31;100.00;100346.41;10446999;28;20131;-78
2023/01/12 21:15:32;;;;;;;5.95;2.33;;;;;;;8.34;100.00;100343.03;10448279;28;20041;-79
2023/01/12 21:20:33;;;;;;;5.97;2.70;;;;;;;8.41;100.00;100346.84;10463054;28;20052;-79
2023/01/12 21:25:33;;;;;;;5.25;2.30;;;;;;;8.40;100.00;100347.69;10407298;28;20033;-78
2023/01/12 21:30:34;;;;;;;8.45;2.35;;;;;;;8.38;100.00;100329.34;10447894;28;20132;-79
2023/01/12 21:35:34;;;;;;;4.90;1.98;;;;;;;8.45;100.00;100328.81;10411031;28;20124;-80
2023/01/12 21:40:36;;;;;;;7.82;2.33;;;;;;;8.55;100.00;100329.28;10413014;28;20048;-79
2023/01/12 21:45:40;;;;;;;6.78;2.05;;;;;;;8.57;100.00;100325.94;10386975;28;20154;-80
2023/01/12 21:50:41;;;;;;;4.65;2.00;;;;;;;8.60;100.00;100328.69;10376767;28;20064;-79
2023/01/12 21:55:42;;;;;;;3.70;1.25;;;;;;;8.66;100.00;100322.84;10383046;28;20064;-79
2023/01/12 22:00:42;;;;;;;8.15;1.80;;;;;;;8.66;100.00;100309.81;10381541;28;20040;-78
2023/01/12 22:05:45;;;;;;;2.75;1.42;;;;;;;8.62;100.00;100313.09;10384766;28;20052;-79
2023/01/12 22:10:48;;;;;;;3.17;1.75;;;;;;;8.56;100.00;100313.72;10421300;28;20060;-79
2023/01/12 22:15:51;;;;;;;2.97;1.17;;;;;;;8.57;100.00;100315.50;10465358;28;20430;-79
2023/01/12 22:20:51;;;;;;;;;;;;;;;8.59;100.00;100303.41;10433642;28;20425;-79
2023/01/12 22:25:51;;;;;;;4.82;1.75;;;;;;;8.58;100.00;100304.25;10431063;28;19921;-80
2023/01/12 22:30:52;;;;;;;4.00;1.30;;;;;;;8.56;100.00;100302.38;10426150;28;20041;-80
2023/01/12 22:35:52;;;;;;;3.63;1.73;;;;;;;8.59;100.00;100302.50;10455570;28;20119;-79
2023/01/12 22:40:53;;;;;;;2.55;1.20;;;;;;;8.58;100.00;100330.34;10458748;28;20037;-80
2023/01/12 22:45:56;;;;;;;4.28;1.33;;;;;;;8.55;100.00;100345.84;10453819;28;20069;-80
2023/01/12 22:50:58;;;;;;;3.08;1.38;;;;;;;8.50;100.00;100326.47;10460661;28;20048;-79
2023/01/12 22:55:59;;;;;;;2.80;1.63;;;;;;;8.34;100.00;100357.00;10464496;28;20033;-81
2023/01/12 23:01:04;;;;;;;3.40;0.77;;;;;;;8.32;100.00;100340.38;10459597;28;20223;-81
2023/01/12 23:06:05;;;;;;;0.88;0.45;;;;;;;8.20;100.00;100339.78;10448406;28;20048;-79
2023/01/12 23:11:07;;;;;;;1.55;0.77;;;;;;;8.20;100.00;100366.72;10468191;28;20039;-80
2023/01/12 23:16:08;;;;;;;3.23;1.30;;;;;;;8.27;100.00;100364.44;10449285;28;20064;-78
2023/01/12 23:21:12;;;;;;;7.15;1.88;;;;;;;8.26;100.00;100357.41;10442823;28;20049;-78
2023/01/12 23:26:15;;;;;;;3.22;1.30;;;;;;;8.20;100.00;100374.56;10424404;28;20067;-78
2023/01/12 23:31:17;;;;;;;4.03;1.40;;;;;;;8.10;100.00;100356.66;10440903;28;20037;-79
2023/01/12 23:36:19;;;;;;;2.83;1.42;;;;;;;8.07;100.00;100339.19;10443820;28;20120;-79
2023/01/12 23:41:21;;;;;;;2.90;1.25;;;;;;;7.92;100.00;100331.47;10461462;28;20052;-78
2023/01/12 23:46:22;;;;;;;10.63;1.73;;;;;;;7.78;100.00;100333.41;10428493;28;20122;-78
2023/01/12 23:51:23;;;;;;;3.27;1.17;;;;;;;7.82;100.00;100313.59;10433186;28;20056;-79
2023/01/12 23:56:25;;;;;;;3.75;1.23;;;;;;;7.87;100.00;100327.75;10456698;28;20771;-79
